createdAt,value
2018-07-19T00:01:36.009Z,3.50
2018-07-19T00:04:04.408Z,3.85
2018-07-19T00:06:33.000Z,3.42
2018-07-19T00:09:01.304Z,3.97
2018-07-19T00:11:29.647Z,3.57
2018-07-19T00:13:57.958Z,3.70
2018-07-19T00:16:26.336Z,3.70
2018-07-19T00:18:54.664Z,3.83
2018-07-19T00:21:22.995Z,3.30
2018-07-19T00:23:51.355Z,3.97
2018-07-19T00:26:19.661Z,3.80
2018-07-19T00:28:48.054Z,3.70
2018-07-19T00:31:16.380Z,3.60
2018-07-19T00:33:44.728Z,3.90
2018-07-19T00:36:13.048Z,3.95
2018-07-19T00:38:41.400Z,3.42
2018-07-19T00:41:09.752Z,3.98
2018-07-19T00:43:38.256Z,3.67
2018-07-19T00:46:06.846Z,3.60
2018-07-19T00:48:35.156Z,3.90
2018-07-19T00:51:03.505Z,3.30
2018-07-19T00:53:31.919Z,3.60
2018-07-19T00:56:00.257Z,3.50
2018-07-19T00:58:28.616Z,3.40
2018-07-19T01:00:56.947Z,3.67
2018-07-19T01:03:25.272Z,3.40
2018-07-19T01:05:53.609Z,3.87
2018-07-19T01:08:21.979Z,3.70
2018-07-19T01:10:50.337Z,3.60
2018-07-19T01:13:18.678Z,3.60
2018-07-19T01:15:46.972Z,3.40
2018-07-19T01:18:15.305Z,4.17
2018-07-19T01:20:43.633Z,4.53
2018-07-19T01:23:11.951Z,3.72
2018-07-19T01:25:40.367Z,3.85
2018-07-19T01:28:08.813Z,3.30
2018-07-19T01:30:37.201Z,3.02
2018-07-19T01:33:05.578Z,3.17
2018-07-19T01:35:33.917Z,3.12
2018-07-19T01:38:02.331Z,4.15
2018-07-19T01:40:30.693Z,5.00
2018-07-19T01:42:59.047Z,3.83
2018-07-19T01:45:27.425Z,3.43
2018-07-19T01:47:55.756Z,3.70
2018-07-19T01:50:24.084Z,3.30
2018-07-19T01:52:52.401Z,3.30
2018-07-19T01:55:20.734Z,3.27
2018-07-19T01:57:49.051Z,3.85
2018-07-19T02:00:17.406Z,3.30
2018-07-19T02:02:45.763Z,3.37
2018-07-19T02:05:14.123Z,3.20
2018-07-19T02:07:42.472Z,3.40
2018-07-19T02:10:10.864Z,3.50
2018-07-19T02:12:39.212Z,3.57
2018-07-19T02:15:07.558Z,3.93
2018-07-19T02:17:35.900Z,3.37
2018-07-19T02:20:04.233Z,3.30
2018-07-19T02:22:32.564Z,3.30
2018-07-19T02:25:01.025Z,3.60
2018-07-19T02:27:29.409Z,3.50
2018-07-19T02:29:57.773Z,3.60
2018-07-19T02:32:26.153Z,3.60
2018-07-19T02:34:54.522Z,3.50
2018-07-19T02:37:22.904Z,4.00
2018-07-19T02:39:51.233Z,3.47
2018-07-19T02:42:19.552Z,3.90
2018-07-19T02:44:47.860Z,3.60
2018-07-19T02:47:16.239Z,3.87
2018-07-19T02:49:44.631Z,3.53
2018-07-19T02:52:12.966Z,3.65
2018-07-19T02:54:41.301Z,3.65
2018-07-19T02:57:09.634Z,3.60
2018-07-19T02:59:37.952Z,3.50
2018-07-19T03:02:06.305Z,3.42
2018-07-19T03:04:34.659Z,3.77
2018-07-19T03:07:03.016Z,4.20
2018-07-19T03:09:31.409Z,3.77
2018-07-19T03:11:59.777Z,3.80
2018-07-19T03:14:28.143Z,4.40
2018-07-19T03:16:56.498Z,3.90
2018-07-19T03:19:24.791Z,4.10
2018-07-19T03:21:53.134Z,3.80
2018-07-19T03:24:21.575Z,4.30
2018-07-19T03:26:49.942Z,4.00
2018-07-19T03:29:18.327Z,4.03
2018-07-19T03:31:46.701Z,3.98
2018-07-19T03:34:15.063Z,4.60
2018-07-19T03:36:43.887Z,4.10
2018-07-19T03:39:12.535Z,4.65
2018-07-19T03:41:40.904Z,4.03
2018-07-19T03:44:09.230Z,4.15
2018-07-19T03:46:37.727Z,4.92
2018-07-19T03:49:06.077Z,4.70
2018-07-19T03:51:34.425Z,4.90
2018-07-19T03:54:02.804Z,4.83
2018-07-19T03:56:31.136Z,4.60
2018-07-19T03:58:59.484Z,4.30
2018-07-19T04:01:27.895Z,5.05
2018-07-19T04:03:56.267Z,4.58
2018-07-19T04:06:24.603Z,5.03
2018-07-19T04:08:52.967Z,4.40
2018-07-19T04:11:21.301Z,4.40
2018-07-19T04:13:49.602Z,4.17
2018-07-19T04:16:18.431Z,4.90
2018-07-19T04:18:46.782Z,4.50
2018-07-19T04:21:15.121Z,4.70
2018-07-19T04:23:43.497Z,4.60
2018-07-19T04:26:12.112Z,4.17
2018-07-19T04:28:40.450Z,4.25
2018-07-19T04:31:08.867Z,3.90
2018-07-19T04:33:37.230Z,4.00
2018-07-19T04:36:05.594Z,4.00
2018-07-19T04:38:33.936Z,4.22
2018-07-19T04:41:02.336Z,4.45
2018-07-19T04:43:30.650Z,4.05
2018-07-19T04:45:58.980Z,4.12
2018-07-19T04:48:27.346Z,4.10
2018-07-19T04:50:55.688Z,3.87
2018-07-19T04:53:24.045Z,4.50
2018-07-19T04:55:52.452Z,4.10
2018-07-19T04:58:20.839Z,3.83
2018-07-19T05:00:49.167Z,4.10
2018-07-19T05:03:17.499Z,3.90
2018-07-19T05:05:45.856Z,4.20
2018-07-19T05:08:14.214Z,4.47
2018-07-19T05:10:42.543Z,4.00
2018-07-19T05:13:10.913Z,4.45
2018-07-19T05:15:39.242Z,4.25
2018-07-19T05:18:07.657Z,4.97
2018-07-19T05:20:36.020Z,4.40
2018-07-19T05:23:04.378Z,4.55
2018-07-19T05:25:32.821Z,5.03
2018-07-19T05:28:01.195Z,4.80
2018-07-19T05:30:29.605Z,4.35
2018-07-19T05:32:57.938Z,4.50
2018-07-19T05:35:26.331Z,4.25
2018-07-19T05:37:54.686Z,4.50
2018-07-19T05:40:23.058Z,4.42
2018-07-19T05:42:51.546Z,4.50
2018-07-19T05:45:19.969Z,5.75
2018-07-19T05:47:48.324Z,4.90
2018-07-19T05:50:16.670Z,4.70
2018-07-19T05:52:45.017Z,5.10
2018-07-19T05:55:13.378Z,4.20
2018-07-19T05:57:41.710Z,5.30
2018-07-19T06:00:10.092Z,4.50
2018-07-19T06:02:42.692Z,5.50
2018-07-19T06:05:11.061Z,4.97
2018-07-19T06:07:39.377Z,4.80
2018-07-19T06:10:07.712Z,5.00
2018-07-19T06:12:36.156Z,5.00
2018-07-19T06:15:04.788Z,5.10
2018-07-19T06:17:33.163Z,4.83
2018-07-19T06:20:01.493Z,5.37
2018-07-19T06:22:29.889Z,4.83
2018-07-19T06:24:58.201Z,4.85
2018-07-19T06:27:26.607Z,4.70
2018-07-19T06:29:54.973Z,4.77
2018-07-19T06:32:23.543Z,4.70
2018-07-19T06:34:51.888Z,4.60
2018-07-19T06:37:20.394Z,4.43
2018-07-19T06:39:48.747Z,4.60
2018-07-19T06:42:17.104Z,4.50
2018-07-19T06:44:45.462Z,4.47
2018-07-19T06:47:14.231Z,4.30
2018-07-19T06:49:42.583Z,3.90
2018-07-19T06:52:11.064Z,3.90
2018-07-19T06:54:39.415Z,3.83
2018-07-19T06:57:08.031Z,3.72
2018-07-19T06:59:36.379Z,3.40
2018-07-19T07:02:04.789Z,3.35
2018-07-19T07:04:33.152Z,3.52
2018-07-19T07:07:01.489Z,2.90
2018-07-19T07:09:29.863Z,2.80
2018-07-19T07:11:58.212Z,2.50
2018-07-19T07:14:26.555Z,2.60
2018-07-19T07:16:54.882Z,2.50
2018-07-19T07:19:23.327Z,2.50
2018-07-19T07:21:51.799Z,2.70
2018-07-19T07:24:20.287Z,2.30
2018-07-19T07:26:48.617Z,2.12
2018-07-19T07:29:17.108Z,2.20
2018-07-19T07:31:45.619Z,2.30
2018-07-19T07:34:13.973Z,1.98
2018-07-19T07:36:42.280Z,2.20
2018-07-19T07:39:11.279Z,2.20
2018-07-19T07:41:39.781Z,2.00
2018-07-19T07:44:08.389Z,2.33
2018-07-19T07:46:36.627Z,2.20
2018-07-19T07:49:05.415Z,1.98
2018-07-19T07:51:34.210Z,2.10
2018-07-19T07:54:02.741Z,2.17
2018-07-19T07:56:31.069Z,1.90
2018-07-19T07:58:59.422Z,2.00
2018-07-19T08:01:27.777Z,2.40
2018-07-19T08:03:56.082Z,2.25
2018-07-19T08:06:24.475Z,2.40
2018-07-19T08:08:52.826Z,2.05
2018-07-19T08:11:21.544Z,2.40
2018-07-19T08:13:49.895Z,2.10
2018-07-19T08:16:18.214Z,1.80
2018-07-19T08:18:46.579Z,2.20
2018-07-19T08:21:14.916Z,2.00
2018-07-19T08:23:43.289Z,2.10
2018-07-19T08:26:11.614Z,2.00
2018-07-19T08:28:39.952Z,1.72
2018-07-19T08:31:08.293Z,2.10
2018-07-19T08:33:36.698Z,2.30
2018-07-19T08:36:05.191Z,2.20
2018-07-19T08:38:33.532Z,2.13
2018-07-19T08:41:01.847Z,1.72
2018-07-19T08:43:30.188Z,2.30
2018-07-19T08:45:58.536Z,2.10
2018-07-19T08:48:26.920Z,2.12
2018-07-19T08:50:55.299Z,2.40
2018-07-19T08:53:23.638Z,2.10
2018-07-19T08:55:52.052Z,2.00
2018-07-19T08:58:20.430Z,1.87
2018-07-19T09:00:48.811Z,2.02
2018-07-19T09:03:17.156Z,2.30
2018-07-19T09:05:45.538Z,2.17
2018-07-19T09:08:13.916Z,2.30
2018-07-19T09:10:42.229Z,2.27
2018-07-19T09:13:10.945Z,2.20
2018-07-19T09:15:39.249Z,2.12
2018-07-19T09:18:07.666Z,2.20
2018-07-19T09:20:36.028Z,2.20
2018-07-19T09:23:04.393Z,2.27
2018-07-19T09:25:32.743Z,2.25
2018-07-19T09:28:01.100Z,2.40
2018-07-19T09:30:29.420Z,2.40
2018-07-19T09:32:57.790Z,2.65
2018-07-19T09:35:26.287Z,2.40
2018-07-19T09:37:54.644Z,2.90
2018-07-19T09:40:23.144Z,2.77
2018-07-19T09:42:51.636Z,2.40
2018-07-19T09:45:20.047Z,2.35
2018-07-19T09:47:48.380Z,2.45
2018-07-19T09:50:16.788Z,2.52
2018-07-19T09:52:45.145Z,2.50
2018-07-19T09:55:13.483Z,2.90
2018-07-19T09:57:41.809Z,5.53
2018-07-19T10:00:10.161Z,2.40
2018-07-19T10:02:38.537Z,2.80
2018-07-19T10:05:07.005Z,2.20
2018-07-19T10:07:35.356Z,2.90
2018-07-19T10:10:03.872Z,2.40
2018-07-19T10:12:32.153Z,2.70
2018-07-19T10:15:00.507Z,2.52
2018-07-19T10:17:28.858Z,2.80
2018-07-19T10:19:57.192Z,2.20
2018-07-19T10:22:25.602Z,2.50
2018-07-19T10:24:53.902Z,2.30
2018-07-19T10:27:22.225Z,2.50
2018-07-19T10:29:50.599Z,2.70
2018-07-19T10:32:19.186Z,2.50
2018-07-19T10:34:47.310Z,2.10
2018-07-19T10:37:15.737Z,2.75
2018-07-19T10:39:44.217Z,2.60
2018-07-19T10:42:13.248Z,2.30
2018-07-19T10:44:41.596Z,2.50
2018-07-19T10:47:10.266Z,2.75
2018-07-19T10:49:38.621Z,2.67
2018-07-19T10:52:07.055Z,2.37
2018-07-19T10:54:35.418Z,2.40
2018-07-19T10:57:03.744Z,2.70
2018-07-19T10:59:32.053Z,2.80
2018-07-19T11:02:00.465Z,2.30
2018-07-19T11:04:28.936Z,2.40
2018-07-19T11:06:57.292Z,2.70
2018-07-19T11:09:25.704Z,2.55
2018-07-19T11:11:54.149Z,2.30
2018-07-19T11:14:22.661Z,2.60
2018-07-19T11:16:50.947Z,2.30
2018-07-19T11:19:19.289Z,2.67
2018-07-19T11:21:47.627Z,2.30
2018-07-19T11:24:15.937Z,2.70
2018-07-19T11:26:44.270Z,2.17
2018-07-19T11:29:12.583Z,2.50
2018-07-19T11:31:41.021Z,2.40
2018-07-19T11:34:09.377Z,2.70
2018-07-19T11:36:37.698Z,2.80
2018-07-19T11:39:08.016Z,2.60
2018-07-19T11:41:37.168Z,2.20
2018-07-19T11:44:06.188Z,2.57
2018-07-19T11:46:34.613Z,2.40
2018-07-19T11:49:02.989Z,3.00
2018-07-19T11:51:31.341Z,2.52
2018-07-19T11:53:59.671Z,2.83
2018-07-19T11:56:28.009Z,3.00
2018-07-19T11:58:56.337Z,2.70
2018-07-19T12:01:24.673Z,2.77
2018-07-19T12:03:52.992Z,2.40
2018-07-19T12:06:21.364Z,2.80
2018-07-19T12:08:49.976Z,3.00
2018-07-19T12:11:18.641Z,2.90
2018-07-19T12:13:47.363Z,2.80
2018-07-19T12:16:15.807Z,2.80
2018-07-19T12:18:44.145Z,2.67
2018-07-19T12:21:12.514Z,2.90
2018-07-19T12:23:40.823Z,2.60
2018-07-19T12:26:09.168Z,2.60
2018-07-19T12:28:37.577Z,2.60
2018-07-19T12:31:05.905Z,2.50
2018-07-19T12:33:34.256Z,2.70
2018-07-19T12:36:02.578Z,2.95
2018-07-19T12:38:30.898Z,2.90
2018-07-19T12:40:59.339Z,2.75
2018-07-19T12:43:27.686Z,2.70
2018-07-19T12:45:56.279Z,2.40
2018-07-19T12:48:24.648Z,3.25
2018-07-19T12:50:53.079Z,2.80
2018-07-19T12:53:21.431Z,2.80
2018-07-19T12:55:49.791Z,2.50
2018-07-19T12:58:18.159Z,2.40
2018-07-19T13:00:46.456Z,2.60
2018-07-19T13:03:14.802Z,2.40
2018-07-19T13:05:43.167Z,2.37
2018-07-19T13:08:11.467Z,2.80
2018-07-19T13:10:39.786Z,2.58
2018-07-19T13:13:08.352Z,2.67
2018-07-19T13:15:37.985Z,2.70
2018-07-19T13:18:06.426Z,2.50
2018-07-19T13:20:34.812Z,2.92
2018-07-19T13:23:03.135Z,2.70
2018-07-19T13:25:31.468Z,3.00
2018-07-19T13:27:59.920Z,2.87
2018-07-19T13:30:28.299Z,2.87
2018-07-19T13:32:56.646Z,2.60
2018-07-19T13:35:24.967Z,2.77
2018-07-19T13:37:53.281Z,2.80
2018-07-19T13:40:21.577Z,2.90
2018-07-19T13:42:49.923Z,3.08
2018-07-19T13:45:18.493Z,2.60
2018-07-19T13:47:46.824Z,2.72
2018-07-19T13:50:15.220Z,3.15
2018-07-19T13:52:54.958Z,2.70
2018-07-19T13:55:23.320Z,2.60
2018-07-19T13:57:52.037Z,2.60
2018-07-19T14:00:20.357Z,2.75
2018-07-19T14:02:48.686Z,2.65
2018-07-19T14:05:17.022Z,3.00
2018-07-19T14:07:45.345Z,2.90
2018-07-19T14:10:13.758Z,2.90
2018-07-19T14:12:42.132Z,2.60
2018-07-19T14:15:10.473Z,3.10
2018-07-19T14:17:38.801Z,3.02
2018-07-19T14:20:07.256Z,3.00
2018-07-19T14:22:35.591Z,3.02
2018-07-19T14:25:03.927Z,3.00
2018-07-19T14:27:32.260Z,2.90
2018-07-19T14:30:00.643Z,2.70
2018-07-19T14:32:28.988Z,2.92
2018-07-19T14:34:57.316Z,2.60
2018-07-19T14:37:25.644Z,2.70
2018-07-19T14:39:53.994Z,2.40
2018-07-19T14:42:22.348Z,2.90
2018-07-19T14:44:50.658Z,2.58
2018-07-19T14:47:19.126Z,2.50
2018-07-19T14:49:47.440Z,3.10
2018-07-19T14:52:15.790Z,3.00
2018-07-19T14:54:44.133Z,3.00
2018-07-19T14:57:12.542Z,2.85
2018-07-19T14:59:40.943Z,2.40
2018-07-19T15:02:09.355Z,2.50
2018-07-19T15:04:37.753Z,2.55
2018-07-19T15:07:06.093Z,3.10
2018-07-19T15:09:34.478Z,2.47
2018-07-19T15:12:02.802Z,2.80
2018-07-19T15:14:31.201Z,2.80
2018-07-19T15:16:59.535Z,3.05
2018-07-19T15:19:27.878Z,3.67
2018-07-19T15:21:56.299Z,3.70
2018-07-19T15:24:24.646Z,3.98
2018-07-19T15:26:53.014Z,4.50
2018-07-19T15:29:21.493Z,4.15
2018-07-19T15:31:50.623Z,4.40
2018-07-19T15:34:18.967Z,4.10
2018-07-19T15:36:47.310Z,4.00
2018-07-19T15:39:15.623Z,3.52
2018-07-19T15:41:47.581Z,3.35
2018-07-19T15:44:15.914Z,3.20
2018-07-19T15:46:44.275Z,3.37
2018-07-19T15:49:12.637Z,3.08
2018-07-19T15:51:40.981Z,2.90
2018-07-19T15:54:09.358Z,2.83
2018-07-19T15:56:37.732Z,2.92
2018-07-19T15:59:06.076Z,2.50
2018-07-19T16:01:34.452Z,3.30
2018-07-19T16:04:02.740Z,2.83
2018-07-19T16:06:31.078Z,2.75
2018-07-19T16:08:59.592Z,2.92
2018-07-19T16:11:27.952Z,3.10
2018-07-19T16:13:56.328Z,3.20
2018-07-19T16:16:24.647Z,3.47
2018-07-19T16:18:53.038Z,3.20
2018-07-19T16:21:21.373Z,3.00
2018-07-19T16:23:49.846Z,3.20
2018-07-19T16:26:18.190Z,3.40
2018-07-19T16:28:46.581Z,3.30
2018-07-19T16:31:21.875Z,3.80
2018-07-19T16:33:50.260Z,3.20
2018-07-19T16:36:18.613Z,2.98
2018-07-19T16:38:46.971Z,3.30
2018-07-19T16:41:15.315Z,3.30
2018-07-19T16:43:43.633Z,3.30
2018-07-19T16:46:12.003Z,3.40
2018-07-19T16:48:40.356Z,3.25
2018-07-19T16:51:08.753Z,3.00
2018-07-19T16:53:37.152Z,3.45
2018-07-19T16:56:05.817Z,3.20
2018-07-19T16:58:34.235Z,3.30
2018-07-19T17:01:02.812Z,2.98
2018-07-19T17:03:31.141Z,2.85
2018-07-19T17:05:59.456Z,4.83
2018-07-19T17:08:27.881Z,4.80
2018-07-19T17:10:56.199Z,4.10
2018-07-19T17:13:24.551Z,4.42
2018-07-19T17:15:52.993Z,3.20
2018-07-19T17:18:21.352Z,4.10
2018-07-19T17:20:49.751Z,3.35
2018-07-19T17:23:18.068Z,3.50
2018-07-19T17:25:46.402Z,3.20
2018-07-19T17:28:14.755Z,2.80
2018-07-19T17:30:43.211Z,4.00
2018-07-19T17:33:11.559Z,3.60
2018-07-19T17:35:40.833Z,3.25
2018-07-19T17:38:09.175Z,3.50
2018-07-19T17:40:37.601Z,3.02
2018-07-19T17:43:06.393Z,4.37
2018-07-19T17:45:35.098Z,3.90
2018-07-19T17:48:03.534Z,3.50
2018-07-19T17:50:31.932Z,4.10
2018-07-19T17:53:00.324Z,5.35
2018-07-19T17:55:28.685Z,4.50
2018-07-19T17:57:57.205Z,3.85
2018-07-19T18:00:25.606Z,3.90
2018-07-19T18:02:53.984Z,3.20
2018-07-19T18:05:22.358Z,3.20
2018-07-19T18:07:50.687Z,3.95
2018-07-19T18:10:18.999Z,4.03
2018-07-19T18:12:47.385Z,3.60
2018-07-19T18:15:15.699Z,3.93
2018-07-19T18:17:44.058Z,4.78
2018-07-19T18:20:12.445Z,3.90
2018-07-19T18:22:40.814Z,3.77
2018-07-19T18:25:09.182Z,4.22
2018-07-19T18:27:37.664Z,4.58
2018-07-19T18:30:07.333Z,4.70
2018-07-19T18:32:35.730Z,3.70
2018-07-19T18:35:04.181Z,3.60
2018-07-19T18:37:32.516Z,3.33
2018-07-19T18:40:00.941Z,4.03
2018-07-19T18:42:29.242Z,3.50
2018-07-19T18:44:57.613Z,4.30
2018-07-19T18:47:25.912Z,3.70
2018-07-19T18:49:54.217Z,3.83
2018-07-19T18:52:22.557Z,3.42
2018-07-19T18:54:50.933Z,3.58
2018-07-19T18:57:19.273Z,3.50
2018-07-19T18:59:47.662Z,3.65
2018-07-19T19:02:15.995Z,3.50
2018-07-19T19:04:44.314Z,3.30
2018-07-19T19:07:12.667Z,3.62
2018-07-19T19:09:41.019Z,4.60
2018-07-19T19:12:09.385Z,3.40
2018-07-19T19:14:37.709Z,3.37
2018-07-19T19:17:06.291Z,3.83
2018-07-19T19:19:34.707Z,4.20
2018-07-19T19:22:03.070Z,6.65
2018-07-19T19:24:31.435Z,4.28
2018-07-19T19:26:59.792Z,4.10
2018-07-19T19:29:28.113Z,3.60
2018-07-19T19:31:56.563Z,12.40
2018-07-19T19:34:24.921Z,4.70
2018-07-19T19:36:53.278Z,3.90
2018-07-19T19:39:21.634Z,4.00
2018-07-19T19:41:49.949Z,4.20
2018-07-19T19:44:25.014Z,4.80
2018-07-19T19:46:53.311Z,3.80
2018-07-19T19:49:21.657Z,3.37
2018-07-19T19:51:50.011Z,5.03
2018-07-19T19:54:18.354Z,5.60
2018-07-19T19:56:46.710Z,4.33
2018-07-19T19:59:20.909Z,4.65
2018-07-19T20:01:49.288Z,3.50
2018-07-19T20:04:17.639Z,3.40
2018-07-19T20:06:45.991Z,3.98
2018-07-19T20:09:14.316Z,20.85
2018-07-19T20:11:42.645Z,14.63
2018-07-19T20:14:10.981Z,8.85
2018-07-19T20:16:39.325Z,8.35
2018-07-19T20:19:07.705Z,3.50
2018-07-19T20:21:36.116Z,3.67
2018-07-19T20:24:04.445Z,3.70
2018-07-19T20:26:32.783Z,3.40
2018-07-19T20:29:01.161Z,3.40
2018-07-19T20:31:29.522Z,3.00
2018-07-19T20:33:57.844Z,3.20
2018-07-19T20:36:26.221Z,3.20
2018-07-19T20:38:54.557Z,3.30
2018-07-19T20:41:22.870Z,3.50
2018-07-19T20:43:51.235Z,3.70
2018-07-19T20:46:19.559Z,3.80
2018-07-19T20:48:47.911Z,3.87
2018-07-19T20:51:16.380Z,3.70
2018-07-19T20:53:44.810Z,3.67
2018-07-19T20:56:13.165Z,4.25
2018-07-19T20:58:41.535Z,4.12
2018-07-19T21:01:09.915Z,4.30
2018-07-19T21:03:38.287Z,4.45
2018-07-19T21:06:07.235Z,4.50
2018-07-19T21:08:35.564Z,4.28
2018-07-19T21:11:03.928Z,4.58
2018-07-19T21:13:32.246Z,4.10
2018-07-19T21:16:00.633Z,3.90
2018-07-19T21:18:28.973Z,3.87
2018-07-19T21:20:57.318Z,4.00
2018-07-19T21:23:25.623Z,4.30
2018-07-19T21:25:53.999Z,4.17
2018-07-19T21:28:22.328Z,3.90
2018-07-19T21:30:50.693Z,4.47
2018-07-19T21:33:19.020Z,3.80
2018-07-19T21:35:47.329Z,4.67
2018-07-19T21:38:15.662Z,4.12
2018-07-19T21:40:43.996Z,4.20
2018-07-19T21:43:12.417Z,4.17
2018-07-19T21:45:40.716Z,5.17
2018-07-19T21:48:09.067Z,4.80
2018-07-19T21:50:37.384Z,4.70
2018-07-19T21:53:05.763Z,4.40
2018-07-19T21:55:34.123Z,4.60
2018-07-19T21:58:02.504Z,4.50
2018-07-19T22:00:31.088Z,4.20
2018-07-19T22:03:01.272Z,4.65
2018-07-19T22:05:29.706Z,4.70
2018-07-19T22:07:58.054Z,4.20
2018-07-19T22:10:26.405Z,3.92
2018-07-19T22:12:54.740Z,3.72
2018-07-19T22:15:23.100Z,3.90
2018-07-19T22:17:51.429Z,3.83
2018-07-19T22:20:19.762Z,4.12
2018-07-19T22:22:48.088Z,3.85
2018-07-19T22:25:16.488Z,3.80
2018-07-19T22:27:44.840Z,4.12
2018-07-19T22:30:13.295Z,4.05
2018-07-19T22:32:41.659Z,3.60
2018-07-19T22:35:09.979Z,4.00
2018-07-19T22:37:38.331Z,3.80
2018-07-19T22:40:06.895Z,3.90
2018-07-19T22:42:35.225Z,3.85
2018-07-19T22:45:03.622Z,3.70
2018-07-19T22:47:32.008Z,3.77
2018-07-19T22:50:00.374Z,4.10
2018-07-19T22:52:28.680Z,3.80
2018-07-19T22:54:57.571Z,3.80
2018-07-19T22:57:25.917Z,4.00
2018-07-19T22:59:54.280Z,4.03
2018-07-19T23:02:22.613Z,4.30
2018-07-19T23:04:51.006Z,4.30
2018-07-19T23:07:19.368Z,4.10
2018-07-19T23:09:47.700Z,3.90
2018-07-19T23:12:16.093Z,3.90
2018-07-19T23:14:44.456Z,5.25
2018-07-19T23:17:12.883Z,3.70
2018-07-19T23:19:41.198Z,4.50
2018-07-19T23:22:09.540Z,4.00
2018-07-19T23:24:37.891Z,4.40
2018-07-19T23:27:06.243Z,4.30
2018-07-19T23:29:34.864Z,4.60
2018-07-19T23:32:03.839Z,4.55
2018-07-19T23:34:32.197Z,4.05
2018-07-19T23:37:04.590Z,4.40
2018-07-19T23:39:38.267Z,4.80
2018-07-19T23:42:37.432Z,4.80
2018-07-19T23:47:19.167Z,4.37
2018-07-19T23:49:47.471Z,4.17
2018-07-19T23:52:15.788Z,4.40
2018-07-19T23:54:44.103Z,4.30
2018-07-19T23:57:12.489Z,4.60
2018-07-19T23:59:40.863Z,4.40
